createdAt,value
2019-03-24T08:30:53.395Z,19.17
2019-03-24T08:33:25.684Z,18.40
2019-03-24T08:59:20.200Z,19.41
2019-03-24T09:01:52.365Z,19.53
2019-03-24T09:04:24.603Z,19.57
2019-03-24T09:06:56.897Z,19.54
2019-03-24T09:09:30.786Z,19.29
2019-03-24T09:12:05.219Z,19.60
2019-03-24T09:14:39.503Z,19.75
2019-03-24T09:17:13.802Z,19.57
2019-03-24T09:19:47.794Z,19.38
2019-03-24T09:22:21.886Z,19.28
2019-03-24T09:24:55.946Z,19.51
2019-03-24T09:27:30.688Z,19.79
2019-03-24T09:30:05.046Z,20.16
2019-03-24T09:32:50.973Z,20.24
2019-03-24T09:35:35.005Z,19.84
2019-03-24T09:38:10.035Z,20.13
2019-03-24T09:40:44.535Z,20.52
2019-03-24T09:43:18.632Z,19.85
2019-03-24T09:46:04.782Z,19.67
2019-03-24T09:48:50.625Z,19.77
2019-03-24T09:51:37.172Z,19.90
2019-03-24T09:54:22.524Z,19.94
2019-03-24T09:57:07.754Z,20.41
2019-03-24T09:59:52.869Z,20.54
2019-03-24T10:02:39.597Z,20.73
2019-03-24T10:05:25.567Z,20.73
2019-03-24T10:08:01.667Z,20.96
2019-03-24T10:10:35.762Z,20.36
2019-03-24T10:13:09.965Z,20.48
2019-03-24T10:15:44.245Z,20.79
2019-03-24T10:18:18.844Z,21.13
2019-03-24T10:20:53.035Z,21.59
2019-03-24T10:23:27.571Z,22.10
2019-03-24T10:26:02.654Z,22.36
2019-03-24T10:28:37.178Z,22.19
2019-03-24T10:31:11.990Z,22.49
2019-03-24T10:33:46.385Z,22.63
2019-03-24T10:36:20.466Z,23.07
2019-03-24T10:38:55.050Z,23.12
2019-03-24T10:41:29.989Z,23.49
2019-03-24T10:44:04.648Z,23.24
2019-03-24T10:46:38.895Z,22.52
2019-03-24T10:49:24.435Z,22.80
2019-03-24T10:51:53.188Z,23.17
2019-03-24T10:54:27.560Z,23.24
2019-03-24T10:57:00.918Z,23.04
2019-03-24T10:59:35.363Z,22.58
2019-03-24T11:02:10.014Z,22.46
2019-03-24T11:04:55.767Z,22.83
2019-03-24T11:07:43.668Z,22.99
2019-03-24T11:10:29.783Z,22.68
2019-03-24T11:13:02.758Z,23.07
2019-03-24T11:26:56.947Z,22.33
2019-03-24T11:29:30.377Z,21.91
2019-03-24T11:32:03.735Z,22.58
2019-03-24T11:34:36.942Z,22.44
2019-03-24T11:37:10.249Z,22.45
2019-03-24T11:39:43.858Z,22.32
2019-03-24T11:42:17.327Z,22.54
2019-03-24T11:44:50.534Z,22.69
2019-03-24T11:47:26.844Z,22.15
2019-03-24T11:49:59.339Z,22.47
2019-03-24T11:52:32.810Z,22.42
2019-03-24T11:55:06.477Z,22.79
2019-03-24T11:57:39.708Z,23.23
2019-03-24T12:00:13.756Z,22.98
2019-03-24T12:02:47.124Z,22.64
2019-03-24T12:05:20.250Z,22.69
2019-03-24T12:07:52.841Z,23.45
2019-03-24T12:10:26.124Z,23.66
2019-03-24T12:12:59.885Z,23.21
2019-03-24T12:15:33.113Z,23.65
2019-03-24T12:18:05.723Z,24.34
2019-03-24T12:20:38.809Z,24.79
2019-03-24T12:23:13.746Z,24.52
2019-03-24T12:25:46.881Z,25.42
2019-03-24T12:28:20.402Z,26.25
2019-03-24T12:30:53.586Z,26.00
2019-03-24T12:33:27.438Z,26.98
2019-03-24T12:36:00.840Z,26.75
2019-03-24T12:38:33.823Z,26.29
2019-03-24T12:41:05.586Z,27.31
2019-03-24T12:43:38.655Z,26.65
2019-03-24T12:46:11.876Z,27.47
2019-03-24T12:48:44.933Z,27.63
2019-03-24T12:51:18.534Z,28.72
2019-03-24T12:53:51.690Z,28.95
2019-03-24T12:56:25.074Z,28.88
2019-03-24T12:58:58.862Z,29.06
2019-03-24T13:01:33.183Z,29.46
2019-03-24T13:04:06.355Z,30.20
2019-03-24T13:06:42.608Z,31.03
2019-03-24T13:09:15.702Z,31.57
2019-03-24T13:11:49.014Z,29.92
2019-03-24T13:14:22.741Z,31.21
2019-03-24T13:16:56.245Z,30.38
2019-03-24T13:19:29.233Z,30.96
2019-03-24T13:22:01.921Z,31.25
2019-03-24T13:24:33.454Z,30.11
2019-03-24T13:27:06.454Z,29.39
2019-03-24T13:29:39.533Z,29.12
2019-03-24T13:32:12.040Z,28.18
2019-03-24T13:34:45.874Z,28.84
2019-03-24T13:37:19.346Z,28.64
2019-03-24T13:39:52.422Z,29.08
2019-03-24T13:42:25.472Z,28.57
2019-03-24T13:44:58.879Z,28.29
2019-03-24T13:47:31.932Z,28.39
2019-03-24T13:50:05.623Z,28.59
2019-03-24T13:52:38.919Z,28.50
2019-03-24T13:55:12.078Z,28.77
2019-03-24T13:57:44.608Z,28.33
2019-03-24T14:00:18.770Z,27.46
2019-03-24T14:02:51.649Z,26.73
2019-03-24T14:05:23.291Z,27.10
2019-03-24T14:07:56.309Z,25.47
2019-03-24T14:10:29.857Z,26.19
2019-03-24T14:13:02.778Z,26.86
2019-03-24T14:15:34.039Z,25.76
2019-03-24T14:18:07.099Z,25.63
2019-03-24T14:20:43.762Z,25.60
2019-03-24T14:23:16.156Z,25.60
2019-03-24T14:25:49.345Z,24.94
2019-03-24T14:28:22.074Z,25.67
2019-03-24T14:30:54.724Z,25.93
2019-03-24T14:33:31.063Z,26.69
2019-03-24T14:36:04.353Z,26.65
2019-03-24T14:38:37.552Z,27.01
2019-03-24T14:41:11.040Z,26.76
2019-03-24T14:43:44.026Z,26.38
2019-03-24T14:46:15.814Z,25.73
2019-03-24T14:48:49.235Z,25.45
2019-03-24T14:51:22.265Z,24.58
2019-03-24T14:53:53.900Z,24.31
2019-03-24T14:56:27.253Z,23.33
2019-03-24T14:59:00.100Z,23.25
2019-03-24T15:01:33.396Z,23.32
2019-03-24T15:04:06.749Z,23.10
2019-03-24T15:06:40.137Z,23.01
2019-03-24T15:09:13.359Z,22.66
2019-03-24T15:11:46.947Z,22.41
2019-03-24T15:14:20.096Z,21.77
2019-03-24T15:16:54.455Z,21.77
2019-03-24T15:19:27.421Z,21.37
2019-03-24T15:22:00.919Z,20.97
2019-03-24T15:24:35.048Z,20.98
2019-03-24T15:27:08.488Z,20.73
2019-03-24T15:29:42.122Z,20.45
2019-03-24T15:32:15.203Z,20.12
2019-03-24T15:34:46.872Z,19.77
2019-03-24T15:37:20.377Z,19.65
2019-03-24T15:39:53.767Z,19.42
2019-03-24T15:42:27.328Z,19.46
2019-03-24T15:45:00.441Z,19.40
2019-03-24T15:47:31.914Z,19.43
2019-03-24T15:50:05.203Z,19.57
2019-03-24T15:52:38.105Z,19.45
2019-03-24T15:55:11.417Z,19.49
2019-03-24T15:57:44.641Z,19.41
2019-03-24T16:00:19.188Z,19.49
2019-03-24T16:02:52.360Z,19.35
2019-03-24T16:05:26.330Z,19.13
2019-03-24T16:07:59.505Z,19.20
2019-03-24T16:10:35.319Z,19.21
2019-03-24T16:13:06.395Z,18.95
2019-03-24T16:15:39.387Z,18.82
2019-03-24T16:18:13.917Z,18.62
2019-03-24T16:20:47.167Z,18.64
2019-03-24T16:23:20.479Z,18.46
2019-03-24T16:25:55.758Z,18.32
2019-03-24T16:28:29.031Z,18.29
2019-03-24T16:31:00.566Z,18.12
2019-03-24T16:33:33.627Z,17.94
2019-03-24T16:36:05.104Z,17.98
2019-03-24T16:38:48.325Z,18.04
2019-03-24T16:41:14.034Z,17.91
2019-03-24T16:43:47.247Z,17.94
2019-03-24T16:46:18.842Z,17.84
2019-03-24T16:48:52.260Z,17.76
2019-03-24T16:51:25.389Z,17.66
2019-03-24T16:53:56.979Z,17.50
2019-03-24T16:56:30.494Z,17.40
2019-03-24T16:59:03.968Z,17.27
2019-03-24T17:01:37.311Z,17.14
2019-03-24T17:04:10.311Z,17.03
2019-03-24T17:06:43.263Z,16.85
2019-03-24T17:09:16.611Z,16.78
2019-03-24T17:11:49.851Z,16.58
2019-03-24T17:14:21.329Z,16.57
2019-03-24T17:16:54.461Z,16.52
2019-03-24T17:19:26.171Z,16.34
2019-03-24T17:21:59.372Z,16.24
2019-03-24T17:24:33.125Z,16.18
2019-03-24T17:27:06.756Z,16.09
2019-03-24T17:29:39.904Z,16.02
2019-03-24T17:32:13.103Z,15.82
2019-03-24T17:34:47.273Z,15.65
2019-03-24T17:37:19.375Z,14.92
2019-03-24T17:39:52.807Z,15.03
2019-03-24T17:42:25.336Z,15.06
2019-03-24T17:44:58.766Z,14.98
2019-03-24T17:47:31.366Z,14.86
2019-03-24T17:50:04.912Z,14.68
2019-03-24T17:52:38.372Z,14.76
2019-03-24T17:55:10.965Z,14.46
2019-03-24T17:57:44.063Z,14.56
2019-03-24T18:00:19.314Z,14.47
2019-03-24T18:02:52.504Z,14.43
2019-03-24T18:05:25.987Z,14.24
2019-03-24T18:07:58.650Z,14.08
2019-03-24T18:10:32.206Z,13.98
2019-03-24T18:13:05.932Z,13.98
2019-03-24T18:15:39.291Z,13.89
2019-03-24T18:18:12.716Z,13.94
2019-03-24T18:20:45.878Z,13.90
2019-03-24T18:23:16.852Z,13.80
2019-03-24T18:25:49.491Z,13.43
2019-03-24T18:28:22.980Z,13.54
2019-03-24T18:30:55.394Z,13.54
2019-03-24T18:33:29.061Z,13.47
2019-03-24T18:36:02.465Z,13.40
2019-03-24T18:38:35.600Z,13.28
2019-03-24T18:41:08.581Z,13.25
2019-03-24T18:43:41.828Z,13.05
2019-03-24T18:46:14.975Z,13.05
2019-03-24T18:48:46.882Z,12.90
2019-03-24T18:51:20.336Z,12.90
2019-03-24T18:53:53.615Z,12.69
2019-03-24T18:56:30.016Z,12.49
2019-03-24T18:59:03.351Z,12.55
2019-03-24T19:01:37.543Z,12.42
2019-03-24T19:04:10.182Z,12.19
2019-03-24T19:06:43.006Z,12.13
2019-03-24T19:09:16.494Z,12.07
2019-03-24T19:11:51.737Z,12.02
2019-03-24T19:14:25.169Z,11.93
2019-03-24T19:16:56.146Z,11.91
2019-03-24T19:19:28.480Z,11.90
2019-03-24T19:22:01.931Z,11.75
2019-03-24T19:24:35.315Z,11.63
2019-03-24T19:27:07.764Z,11.46
2019-03-24T19:29:40.459Z,11.35
2019-03-24T19:32:14.279Z,11.35
2019-03-24T19:34:47.384Z,11.28
2019-03-24T19:37:21.447Z,11.18
2019-03-24T19:39:53.951Z,11.02
2019-03-24T19:42:27.174Z,10.95
2019-03-24T19:45:01.063Z,10.82
2019-03-24T19:47:34.365Z,10.73
2019-03-24T19:50:05.941Z,10.58
2019-03-24T19:52:44.662Z,10.51
2019-03-24T19:55:15.456Z,10.36
2019-03-24T19:57:49.005Z,10.23
2019-03-24T20:00:22.062Z,10.21
2019-03-24T20:02:55.755Z,10.09
2019-03-24T20:05:28.740Z,9.95
2019-03-24T20:08:01.593Z,9.90
2019-03-24T20:10:34.764Z,9.89
2019-03-24T20:13:07.971Z,9.89
2019-03-24T20:15:41.227Z,9.81
2019-03-24T20:18:15.642Z,9.88
2019-03-24T20:20:47.307Z,9.90
2019-03-24T20:23:20.596Z,9.91
2019-03-24T20:25:52.146Z,9.76
2019-03-24T20:28:25.399Z,9.79
2019-03-24T20:30:58.773Z,9.69
2019-03-24T20:33:32.584Z,9.69
2019-03-24T20:36:06.443Z,9.47
2019-03-24T20:38:38.837Z,9.24
2019-03-24T20:41:11.893Z,8.92
2019-03-24T20:43:44.848Z,8.68
2019-03-24T20:46:18.113Z,8.48
2019-03-24T20:48:50.098Z,8.35
2019-03-24T20:51:23.002Z,8.27
2019-03-24T20:53:56.487Z,8.20
2019-03-24T20:56:29.496Z,8.10
2019-03-24T20:59:02.772Z,7.95
2019-03-24T21:01:34.296Z,7.89
2019-03-24T21:04:07.519Z,7.91
2019-03-24T21:06:40.798Z,7.86
2019-03-24T21:09:13.951Z,7.75
2019-03-24T21:11:48.594Z,7.78
2019-03-24T21:14:23.063Z,7.85
2019-03-24T21:16:56.079Z,7.88
2019-03-24T21:19:31.098Z,7.86
2019-03-24T21:22:03.612Z,7.91
2019-03-24T21:24:36.927Z,7.85
2019-03-24T21:27:08.544Z,7.77
2019-03-24T21:29:58.334Z,7.78
2019-03-24T21:32:32.358Z,7.72
2019-03-24T21:35:06.107Z,7.73
2019-03-24T21:37:38.936Z,7.73
2019-03-24T21:40:12.278Z,7.79
2019-03-24T21:42:45.324Z,7.94
2019-03-24T21:45:16.888Z,7.92
2019-03-24T21:47:49.766Z,8.03
2019-03-24T21:50:23.024Z,7.99
2019-03-24T21:52:54.299Z,8.01
2019-03-24T21:55:27.042Z,8.07
2019-03-24T21:58:00.560Z,7.97
2019-03-24T22:00:38.451Z,7.88
2019-03-24T22:03:11.724Z,7.84
2019-03-24T22:05:43.098Z,7.77
2019-03-24T22:08:16.063Z,7.80
2019-03-24T22:10:49.296Z,7.66
2019-03-24T22:13:22.328Z,7.61
2019-03-24T22:15:55.063Z,7.50
2019-03-24T22:18:28.193Z,7.45
2019-03-24T22:21:01.142Z,7.44
2019-03-24T22:23:34.328Z,7.34
2019-03-24T22:26:05.922Z,7.21
2019-03-24T22:28:38.897Z,7.06
2019-03-24T22:31:12.045Z,6.83
2019-03-24T22:33:45.050Z,6.71
2019-03-24T22:36:18.179Z,6.68
2019-03-24T22:38:51.122Z,6.55
2019-03-24T22:41:24.436Z,6.55
2019-03-24T22:43:55.797Z,6.61
2019-03-24T22:46:28.504Z,6.55
2019-03-24T22:49:01.573Z,6.53
2019-03-24T22:51:35.478Z,6.61
2019-03-24T22:54:09.092Z,6.64
2019-03-24T22:56:42.387Z,6.66
2019-03-24T22:59:13.791Z,6.74
2019-03-24T23:01:46.644Z,6.79
2019-03-24T23:04:19.936Z,6.67
2019-03-24T23:06:52.875Z,6.61
2019-03-24T23:09:25.903Z,6.61
2019-03-24T23:11:58.975Z,6.63
2019-03-24T23:14:32.156Z,6.68
2019-03-24T23:17:03.671Z,6.73
2019-03-24T23:19:36.830Z,6.84
2019-03-24T23:22:08.142Z,6.92
2019-03-24T23:24:40.850Z,6.97
2019-03-24T23:27:13.820Z,6.81
2019-03-24T23:29:47.100Z,6.88
2019-03-24T23:32:18.397Z,6.99
2019-03-24T23:34:51.195Z,7.02
2019-03-24T23:37:24.615Z,7.01
2019-03-24T23:39:57.925Z,6.90
2019-03-24T23:42:29.438Z,6.77
2019-03-24T23:45:02.658Z,6.73
2019-03-24T23:47:35.949Z,6.56
2019-03-24T23:50:09.157Z,6.52
2019-03-24T23:52:40.771Z,6.47
2019-03-24T23:55:14.985Z,6.53
2019-03-24T23:57:47.898Z,6.48
